KLEB/LEB METAR and TAF weather

Enter ICAO airport designator
Station Type Date Time Source
KLEB METAR 2020/09/26 11:45 UTC NOAA

KLEB 261145Z 00000KT 1/4SM FG BKN003 OVC009 12/11 A3013 RMK AO2 T01170106


Station Type Date Time Source
KLEB Decoded METAR 2020/09/26 11:45 UTC NOAA

LEBANON MUNICIPAL AIRPORT, NH, United States (KLEB) 43-38N 072-18W 171M
Sep 26, 2020 - 07:45 AM EDT / 2020.09.26 1145 UTC
Wind: Calm:0
Visibility: 1/4 mile(s):0
Sky conditions: overcast
Weather: fog
Temperature: 53.1 F (11.7 C)
Dew Point: 51.1 F (10.6 C)
Relative Humidity: 92%
Pressure (altimeter): 30.13 in. Hg (1020 hPa)
ob: KLEB 261145Z 00000KT 1/4SM FG BKN003 OVC009 12/11 A3013 RMK AO2 T01170106
cycle: 12

Station Type Date Time Source
KLEB TAF 2020/09/26 12:24 UTC NOAA

TAF KLEB 261121Z 2612/2712 00000KT 1/4SM FG VV001
FM261300 19004KT P6SM SCT050
FM270500 18004KT 1/2SM FG OVC001

Example: see airport list